Aérodrome :
LOGIN :

S'inscrire | Disclaimer

   EN    FR    IT 

 










Légende :    VFR   VFR Marginal   IFR   IFR Intensif   IFR Très Intensif
Visi : 
Plafond : 
>= 8 km
>= 3000ft
5 à 8 km
1000 à 3000 ft
1500m à 5 km
500 à 1000 ft
800 à 1500m
200 à 500 ft
< 800m
< 200 ft
Symboles :   Orages  Brouillard  Fortes neiges  Fortes précipitations  Vent > 20 kt
SIGMETs :   Divers  Orages  Givrage  Turbulence  Onde Orograph.  Cendres Volcan.







- Altitude de l'aérodrome : 18 ft
- Code IATA : AJA
- Voir les cartes d'approche


LFKJ - Ajaccio

DERNIER METAR :
  • 221200Z AUTO 21009KT CAVOK 13/04 Q1000 TEMPO SHRA SCT030CB BKN050

METARs EXPIRÉS :
  • 221130Z AUTO 22007KT CAVOK 12/04 Q1001 TEMPO SHRA SCT030CB BKN050
  • 221100Z AUTO 22007KT CAVOK 12/02 Q1001 NOSIG
  • 221030Z AUTO 21005KT CAVOK 12/01 Q1001 NOSIG
  • 221000Z AUTO 20004KT CAVOK 11/02 Q1001 NOSIG
  • 220930Z AUTO 25003KT 9999 NSC 10/02 Q1001 NOSIG

TAF TAF LFKJ
Valide du 22 à 09h jusqu'au 23 à 09h UTC


220800Z 2209/2309 04005KT 9999 FEW040 BKN230
TEMPO 2213/2216 SHRA SCT030CB BKN050
ATIS : +33 4 95 23 59 85
Pas de NOTAMs connus pour ce terrain.
1 SIGMET publié pour la FIR Marseille (LFMM) :
 
Turbulence forte
LFMM SIGMET 6 VALID 221100/221500 LFPW
LFMM MARSEILLE FIR/UIR SEV TURB FCST W OF LINE N4200 E00415 - N4345 E00245 SFC/FL050 STNR WKN=



MET'MAP, la Météo Aéronautique d'un coup d'oeil ! - Copyright ORBIFLY Décembre 2007 - Disclaimer

ORBIFLY MET'MAP TEAM :

Programmation & Développement : Alexandra Zaïnal
Conception & Développement : Baudouin d'Aumeries
Co-Programmation & Développement : Marc-Olivier Méhu
Soutien technique & logistique : Manuel Goepfert

Contact : metmap@orbifly.com




SOURCES & CREDITS :

   NOAA